Time;durP1;ratioP1;P1;durP2;ratioP2;P2;SDS_P1;SDS_P2;PMS_P1;PMS_P2;Temp;Humidity;BMP_temperature;BMP_pressure;BME280_temperature;BME280_humidity;BME280_pressure;Samples;Min_cycle;Max_cycle;Signal;HPM_P1;HPM_P2
2023/05/11 00:02:21;;;;;;;7.70;4.90;;;;;;;;;;5009006;28;20073;-64
2023/05/11 00:04:48;;;;;;;9.80;5.00;;;;;;;;;;5008404;28;20034;-67
2023/05/11 00:07:15;;;;;;;13.60;4.70;;;;;;;;;;5002130;28;20034;-67
2023/05/11 00:09:41;;;;;;;8.70;4.72;;;;;;;;;;5011130;28;20464;-68
2023/05/11 00:12:08;;;;;;;10.07;4.53;;;;;;;;;;5010664;28;20038;-66
2023/05/11 00:14:35;;;;;;;9.95;4.45;;;;;;;;;;5006972;28;20128;-66
2023/05/11 00:17:01;;;;;;;7.35;4.30;;;;;;;;;;5006547;28;20048;-67
2023/05/11 00:19:30;;;;;;;9.50;3.80;;;;;;;;;;5009811;28;20049;-68
2023/05/11 00:21:57;;;;;;;5.93;3.22;;;;;;;;;;5013180;28;20503;-66
2023/05/11 00:24:24;;;;;;;6.78;3.67;;;;;;;;;;5009176;28;20053;-62
2023/05/11 00:26:51;;;;;;;6.47;3.72;;;;;;;;;;5011788;28;20052;-64
2023/05/11 00:29:18;;;;;;;12.00;3.88;;;;;;;;;;5012346;28;20069;-66
2023/05/11 00:31:48;;;;;;;9.02;4.40;;;;;;;;;;5012375;28;20683;-70
2023/05/11 00:34:16;;;;;;;8.50;4.47;;;;;;;;;;5011608;28;20034;-67
2023/05/11 00:36:42;;;;;;;10.48;3.67;;;;;;;;;;5010569;28;20095;-67
2023/05/11 00:39:10;;;;;;;6.68;3.10;;;;;;;;;;5005078;28;20057;-66
2023/05/11 00:41:37;;;;;;;7.10;2.88;;;;;;;;;;5011159;28;20041;-65
2023/05/11 00:44:04;;;;;;;8.63;3.20;;;;;;;;;;5012410;28;20076;-66
2023/05/11 00:46:30;;;;;;;7.43;2.67;;;;;;;;;;5009236;28;20049;-64
2023/05/11 00:48:57;;;;;;;7.70;3.33;;;;;;;;;;5010696;28;20180;-67
2023/05/11 00:51:25;;;;;;;8.50;3.80;;;;;;;;;;5011641;28;20042;-66
2023/05/11 00:53:51;;;;;;;7.78;3.58;;;;;;;;;;5011788;28;20061;-67
2023/05/11 00:56:18;;;;;;;9.23;3.72;;;;;;;;;;5011816;28;20056;-66
2023/05/11 00:58:45;;;;;;;6.95;3.50;;;;;;;;;;5010742;28;20068;-67
2023/05/11 01:01:16;;;;;;;6.80;3.40;;;;;;;;;;5002620;28;20040;-68
2023/05/11 01:03:43;;;;;;;8.77;3.33;;;;;;;;;;5009294;28;20050;-68
2023/05/11 01:06:20;;;;;;;8.18;3.67;;;;;;;;;;5010061;28;20918;-67
2023/05/11 01:08:52;;;;;;;9.23;3.72;;;;;;;;;;4990042;28;20046;-67
2023/05/11 01:11:33;;;;;;;7.00;3.38;;;;;;;;;;4989596;28;20100;-67
2023/05/11 01:14:03;;;;;;;8.15;3.65;;;;;;;;;;5008136;28;20041;-66
2023/05/11 01:16:32;;;;;;;10.60;3.92;;;;;;;;;;5008225;28;20046;-67
2023/05/11 01:19:05;;;;;;;6.25;3.40;;;;;;;;;;5012388;28;20119;-63
2023/05/11 01:21:34;;;;;;;;;;;;;;;;;;4999439;28;20826;-65
2023/05/11 01:24:16;;;;;;;8.75;3.85;;;;;;;;;;5001610;28;19957;-65
2023/05/11 01:26:46;;;;;;;6.18;3.58;;;;;;;;;;5010432;28;20050;-68
2023/05/11 01:29:34;;;;;;;8.63;3.92;;;;;;;;;;4971888;28;20550;-65
2023/05/11 01:32:05;;;;;;;11.75;4.57;;;;;;;;;;4971173;28;20042;-67
2023/05/11 01:34:33;;;;;;;9.98;4.72;;;;;;;;;;4968892;28;20038;-69
2023/05/11 01:37:12;;;;;;;13.93;4.72;;;;;;;;;;4977954;28;20478;-68
2023/05/11 01:39:42;;;;;;;8.23;4.75;;;;;;;;;;4972339;28;20038;-67
2023/05/11 01:42:10;;;;;;;9.10;4.57;;;;;;;;;;4976241;28;20092;-68
2023/05/11 01:44:39;;;;;;;10.57;4.72;;;;;;;;;;4976018;28;20038;-66
2023/05/11 01:47:07;;;;;;;8.18;4.35;;;;;;;;;;4973274;28;20141;-67
2023/05/11 01:49:37;;;;;;;10.45;4.50;;;;;;;;;;4972642;28;20038;-68
2023/05/11 01:52:05;;;;;;;8.77;4.85;;;;;;;;;;4973661;28;20045;-68
2023/05/11 01:54:32;;;;;;;14.02;4.60;;;;;;;;;;4976183;28;20030;-67
2023/05/11 01:57:00;;;;;;;12.10;4.40;;;;;;;;;;4968974;28;20046;-68
2023/05/11 01:59:27;;;;;;;10.80;4.82;;;;;;;;;;4958535;28;20043;-68
2023/05/11 02:01:54;;;;;;;11.80;4.53;;;;;;;;;;4961737;28;20086;-69
2023/05/11 02:04:22;;;;;;;8.35;4.22;;;;;;;;;;4946465;28;20054;-71
2023/05/11 02:06:48;;;;;;;10.55;4.53;;;;;;;;;;4980870;28;20075;-68
2023/05/11 02:09:16;;;;;;;9.10;4.38;;;;;;;;;;5001535;28;20073;-67
2023/05/11 02:11:44;;;;;;;8.55;4.03;;;;;;;;;;5009091;28;20383;-67
2023/05/11 02:14:11;;;;;;;7.93;3.65;;;;;;;;;;5009710;28;20764;-67
2023/05/11 02:16:38;;;;;;;8.52;4.30;;;;;;;;;;5010416;28;20709;-68
2023/05/11 02:19:07;;;;;;;8.82;4.25;;;;;;;;;;5010266;28;20045;-67
2023/05/11 02:21:34;;;;;;;8.80;4.30;;;;;;;;;;5009599;28;20537;-67
2023/05/11 02:24:05;;;;;;;8.80;3.97;;;;;;;;;;5009023;28;20037;-67
2023/05/11 02:26:31;;;;;;;9.68;4.10;;;;;;;;;;5010816;28;20042;-67
2023/05/11 02:28:58;;;;;;;7.32;3.83;;;;;;;;;;5012489;28;20049;-67
2023/05/11 02:31:27;;;;;;;9.93;4.07;;;;;;;;;;5009193;28;20045;-68
2023/05/11 02:33:56;;;;;;;6.43;3.78;;;;;;;;;;5009802;28;20096;-68
2023/05/11 02:36:27;;;;;;;8.23;4.18;;;;;;;;;;5008987;28;20129;-68
2023/05/11 02:38:58;;;;;;;7.60;4.10;;;;;;;;;;5010397;28;20612;-66
2023/05/11 02:41:26;;;;;;;7.57;4.35;;;;;;;;;;5009109;28;20937;-66
2023/05/11 02:43:54;;;;;;;9.55;4.10;;;;;;;;;;5011330;28;20418;-66
2023/05/11 02:46:23;;;;;;;11.23;4.50;;;;;;;;;;5007168;28;20038;-66
2023/05/11 02:48:53;;;;;;;10.88;4.47;;;;;;;;;;4989572;28;20160;-68
2023/05/11 02:51:22;;;;;;;9.93;4.88;;;;;;;;;;4989692;28;20492;-63
2023/05/11 02:53:49;;;;;;;9.15;4.82;;;;;;;;;;4990160;28;20046;-66
2023/05/11 02:56:16;;;;;;;13.25;5.45;;;;;;;;;;4991066;28;20049;-68
2023/05/11 02:58:43;;;;;;;11.57;4.82;;;;;;;;;;4988922;28;20137;-67
2023/05/11 03:01:11;;;;;;;10.38;5.45;;;;;;;;;;4989640;28;20190;-68
2023/05/11 03:03:38;;;;;;;12.45;5.63;;;;;;;;;;4988921;28;20048;-67
2023/05/11 03:06:05;;;;;;;12.45;5.43;;;;;;;;;;4991723;28;20129;-68
2023/05/11 03:08:31;;;;;;;13.68;5.25;;;;;;;;;;4989188;28;20042;-68
2023/05/11 03:10:59;;;;;;;14.32;5.90;;;;;;;;;;4989430;28;20049;-68
2023/05/11 03:13:25;;;;;;;11.02;6.60;;;;;;;;;;4989167;28;20100;-67
2023/05/11 03:15:52;;;;;;;11.77;6.28;;;;;;;;;;4987957;28;20104;-68
2023/05/11 03:18:20;;;;;;;17.00;6.35;;;;;;;;;;4991627;28;20541;-64
2023/05/11 03:20:47;;;;;;;14.02;6.55;;;;;;;;;;4988666;28;20034;-64
2023/05/11 03:23:14;;;;;;;14.07;7.10;;;;;;;;;;4988527;28;20438;-67
2023/05/11 03:25:42;;;;;;;15.68;6.72;;;;;;;;;;4988308;28;20038;-67
2023/05/11 03:28:09;;;;;;;15.95;7.80;;;;;;;;;;4988901;28;20058;-67
2023/05/11 03:30:37;;;;;;;13.40;7.10;;;;;;;;;;4986568;28;20038;-66
2023/05/11 03:33:04;;;;;;;15.98;8.25;;;;;;;;;;4985683;28;20043;-67
2023/05/11 03:35:31;;;;;;;21.00;7.90;;;;;;;;;;4986894;28;20042;-67
2023/05/11 03:37:58;;;;;;;12.63;6.68;;;;;;;;;;4988478;28;20045;-67
2023/05/11 03:40:28;;;;;;;12.23;6.68;;;;;;;;;;4987638;28;20180;-67
2023/05/11 03:42:57;;;;;;;14.88;7.03;;;;;;;;;;4988353;28;20373;-66
2023/05/11 03:45:25;;;;;;;19.75;7.60;;;;;;;;;;4989080;28;20096;-67
2023/05/11 03:47:52;;;;;;;21.02;8.07;;;;;;;;;;5008079;28;20048;-65
2023/05/11 03:50:19;;;;;;;20.92;8.55;;;;;;;;;;5006650;28;20103;-65
2023/05/11 03:52:46;;;;;;;19.08;7.25;;;;;;;;;;5007612;28;20133;-66
2023/05/11 03:55:13;;;;;;;29.15;9.68;;;;;;;;;;5012067;28;20049;-67
2023/05/11 03:57:39;;;;;;;25.02;7.53;;;;;;;;;;5013639;28;20124;-67
2023/05/11 04:00:07;;;;;;;24.88;7.60;;;;;;;;;;5012582;28;20358;-67
2023/05/11 04:02:36;;;;;;;16.77;7.60;;;;;;;;;;5009688;28;20045;-65
2023/05/11 04:05:09;;;;;;;18.63;7.60;;;;;;;;;;5012688;28;20938;-67
2023/05/11 04:07:37;;;;;;;16.85;7.57;;;;;;;;;;5011831;28;20044;-66
2023/05/11 04:10:04;;;;;;;25.63;8.68;;;;;;;;;;5011855;28;20029;-67
2023/05/11 04:12:31;;;;;;;17.52;7.25;;;;;;;;;;5013009;28;20113;-67
2023/05/11 04:14:58;;;;;;;16.48;6.97;;;;;;;;;;5013273;28;20037;-67
2023/05/11 04:17:25;;;;;;;18.75;7.78;;;;;;;;;;5014301;28;20052;-67
2023/05/11 04:19:51;;;;;;;15.07;8.05;;;;;;;;;;5014859;28;20365;-69
2023/05/11 04:22:18;;;;;;;16.60;7.93;;;;;;;;;;5014759;28;20069;-66
2023/05/11 04:24:45;;;;;;;21.02;8.65;;;;;;;;;;5013034;28;20045;-67
2023/05/11 04:27:11;;;;;;;14.98;8.15;;;;;;;;;;5015051;28;20439;-66
2023/05/11 04:29:38;;;;;;;14.63;7.78;;;;;;;;;;5012751;28;20049;-66
2023/05/11 04:32:04;;;;;;;22.75;7.93;;;;;;;;;;5012683;28;20080;-65
2023/05/11 04:34:31;;;;;;;19.60;8.13;;;;;;;;;;5012773;28;20038;-67
2023/05/11 04:36:58;;;;;;;18.42;7.82;;;;;;;;;;5011239;28;20521;-65
2023/05/11 04:39:25;;;;;;;17.60;7.38;;;;;;;;;;5008913;28;20045;-66
2023/05/11 04:41:51;;;;;;;18.77;7.40;;;;;;;;;;5010130;28;20050;-66
2023/05/11 04:44:18;;;;;;;13.75;7.55;;;;;;;;;;5009551;28;20156;-67
2023/05/11 04:46:44;;;;;;;26.15;8.10;;;;;;;;;;5008115;28;20103;-66
2023/05/11 04:49:11;;;;;;;26.27;7.80;;;;;;;;;;5010564;28;20038;-67
2023/05/11 04:51:38;;;;;;;21.92;8.23;;;;;;;;;;5008141;28;20038;-66
2023/05/11 04:54:05;;;;;;;20.35;8.15;;;;;;;;;;5009956;28;20069;-66
2023/05/11 04:56:31;;;;;;;22.77;7.88;;;;;;;;;;5009547;28;20056;-65
2023/05/11 04:58:58;;;;;;;19.73;7.22;;;;;;;;;;5011501;28;20042;-66
2023/05/11 05:01:25;;;;;;;22.33;8.00;;;;;;;;;;5011767;28;20496;-65
2023/05/11 05:03:51;;;;;;;25.80;7.65;;;;;;;;;;5011409;28;20575;-66
2023/05/11 05:06:18;;;;;;;18.60;7.72;;;;;;;;;;5012658;28;20064;-66
2023/05/11 05:08:44;;;;;;;17.17;7.10;;;;;;;;;;5009479;28;20049;-64
2023/05/11 05:11:11;;;;;;;13.35;6.72;;;;;;;;;;4994635;28;20169;-65
2023/05/11 05:13:38;;;;;;;15.43;7.55;;;;;;;;;;5008011;28;20046;-64
2023/05/11 05:16:04;;;;;;;17.60;6.85;;;;;;;;;;5008885;28;20053;-65
2023/05/11 05:18:31;;;;;;;18.85;7.30;;;;;;;;;;5008045;28;20307;-66
2023/05/11 05:20:58;;;;;;;22.13;7.65;;;;;;;;;;5010041;28;20546;-66
2023/05/11 05:23:25;;;;;;;13.65;7.05;;;;;;;;;;4990213;28;20037;-67
2023/05/11 05:25:51;;;;;;;18.98;7.82;;;;;;;;;;5007649;28;20136;-66
2023/05/11 05:28:18;;;;;;;22.15;7.95;;;;;;;;;;5009569;28;20046;-68
2023/05/11 05:30:45;;;;;;;16.88;8.35;;;;;;;;;;5010263;28;20091;-66
2023/05/11 05:33:11;;;;;;;22.80;8.00;;;;;;;;;;5011222;28;20450;-66
2023/05/11 05:35:38;;;;;;;19.98;8.35;;;;;;;;;;5008482;28;20061;-66
2023/05/11 05:38:04;;;;;;;25.70;8.55;;;;;;;;;;5008071;28;20056;-66
2023/05/11 05:40:31;;;;;;;19.63;8.77;;;;;;;;;;5008727;28;20419;-66
2023/05/11 05:42:58;;;;;;;16.92;8.05;;;;;;;;;;5007863;28;20041;-66
2023/05/11 05:45:25;;;;;;;23.63;8.40;;;;;;;;;;5006976;28;20045;-65
2023/05/11 05:47:51;;;;;;;18.08;8.63;;;;;;;;;;5008428;28;20049;-64
2023/05/11 05:50:18;;;;;;;16.75;8.63;;;;;;;;;;5008230;28;20052;-66
2023/05/11 05:52:45;;;;;;;21.85;8.80;;;;;;;;;;5007124;28;20601;-65
2023/05/11 05:55:11;;;;;;;21.02;9.23;;;;;;;;;;5006689;28;20050;-65
2023/05/11 05:57:38;;;;;;;20.52;8.75;;;;;;;;;;5007663;28;20057;-66
2023/05/11 06:00:05;;;;;;;21.52;8.88;;;;;;;;;;5008519;28;20061;-65
2023/05/11 06:02:31;;;;;;;16.05;8.70;;;;;;;;;;5008381;28;21801;-66
2023/05/11 06:04:58;;;;;;;20.25;9.57;;;;;;;;;;5010366;28;20041;-65
2023/05/11 06:07:24;;;;;;;21.17;8.30;;;;;;;;;;5008378;28;20569;-66
2023/05/11 06:09:51;;;;;;;16.30;8.23;;;;;;;;;;5010266;28;20030;-65
2023/05/11 06:12:18;;;;;;;18.95;8.88;;;;;;;;;;5008075;28;20555;-65
2023/05/11 06:14:44;;;;;;;12.02;8.10;;;;;;;;;;5010864;28;20045;-66
2023/05/11 06:17:11;;;;;;;16.50;7.95;;;;;;;;;;5009439;28;20041;-66
2023/05/11 06:19:39;;;;;;;17.70;8.18;;;;;;;;;;5008885;28;20504;-66
2023/05/11 06:22:06;;;;;;;20.75;8.48;;;;;;;;;;5009790;28;20052;-65
2023/05/11 06:24:33;;;;;;;16.70;9.00;;;;;;;;;;5010005;28;20063;-66
2023/05/11 06:27:00;;;;;;;15.32;8.48;;;;;;;;;;5007945;28;20049;-64
2023/05/11 06:29:27;;;;;;;18.58;8.85;;;;;;;;;;5007384;28;20068;-65
2023/05/11 06:31:54;;;;;;;19.95;9.20;;;;;;;;;;5009141;28;20041;-67
2023/05/11 06:34:21;;;;;;;20.55;9.00;;;;;;;;;;5007210;28;20056;-66
2023/05/11 06:36:48;;;;;;;19.88;8.88;;;;;;;;;;5007833;28;20046;-66
2023/05/11 06:39:15;;;;;;;13.93;8.32;;;;;;;;;;5008436;28;20041;-65
2023/05/11 06:41:41;;;;;;;14.63;8.70;;;;;;;;;;5006096;28;20038;-65
2023/05/11 06:44:08;;;;;;;18.45;9.50;;;;;;;;;;5007500;28;20064;-65
2023/05/11 06:46:35;;;;;;;17.10;8.95;;;;;;;;;;5007384;28;20090;-65
2023/05/11 06:49:03;;;;;;;13.95;8.98;;;;;;;;;;5008594;28;20044;-64
2023/05/11 06:51:29;;;;;;;16.17;8.63;;;;;;;;;;5008285;28;20038;-67
2023/05/11 06:53:56;;;;;;;20.55;9.25;;;;;;;;;;5006851;28;20049;-67
2023/05/11 06:56:23;;;;;;;18.85;8.85;;;;;;;;;;5006670;28;20041;-65
2023/05/11 06:58:49;;;;;;;19.40;9.18;;;;;;;;;;5009065;28;20099;-65
2023/05/11 07:01:16;;;;;;;20.55;9.43;;;;;;;;;;5008500;28;20037;-66
2023/05/11 07:03:43;;;;;;;17.75;9.32;;;;;;;;;;5007991;28;20087;-65
2023/05/11 07:06:09;;;;;;;20.55;9.85;;;;;;;;;;5012410;28;20037;-68
2023/05/11 07:08:36;;;;;;;21.48;9.45;;;;;;;;;;5008156;28;20124;-66
2023/05/11 07:11:03;;;;;;;20.15;9.73;;;;;;;;;;5008574;28;20046;-65
2023/05/11 07:13:29;;;;;;;16.40;9.13;;;;;;;;;;5000589;28;20038;-66
2023/05/11 07:15:56;;;;;;;17.50;9.07;;;;;;;;;;5007091;28;20053;-65
2023/05/11 07:18:23;;;;;;;15.80;8.52;;;;;;;;;;5007039;28;20085;-65
2023/05/11 07:20:49;;;;;;;17.63;9.85;;;;;;;;;;5006261;28;20037;-66
2023/05/11 07:23:16;;;;;;;20.02;9.07;;;;;;;;;;5007363;28;20048;-66
2023/05/11 07:25:43;;;;;;;17.30;9.23;;;;;;;;;;5006734;28;20042;-66
2023/05/11 07:28:10;;;;;;;17.10;10.05;;;;;;;;;;5007364;28;20045;-67
2023/05/11 07:30:36;;;;;;;19.98;9.07;;;;;;;;;;5006443;28;20046;-66
2023/05/11 07:33:03;;;;;;;17.65;9.27;;;;;;;;;;5006189;28;20041;-65
2023/05/11 07:35:29;;;;;;;17.02;9.52;;;;;;;;;;5005998;28;20119;-66
2023/05/11 07:37:56;;;;;;;15.40;9.07;;;;;;;;;;5007564;28;20041;-65
2023/05/11 07:40:23;;;;;;;16.17;8.90;;;;;;;;;;5007775;28;20103;-65
2023/05/11 07:42:50;;;;;;;17.33;9.30;;;;;;;;;;5003918;28;20399;-66
2023/05/11 07:45:16;;;;;;;19.67;9.95;;;;;;;;;;5007154;28;20038;-66
2023/05/11 07:47:43;;;;;;;15.38;9.20;;;;;;;;;;5006502;28;20415;-67
2023/05/11 07:50:11;;;;;;;19.25;9.63;;;;;;;;;;5006764;28;20038;-66
2023/05/11 07:52:38;;;;;;;19.20;9.02;;;;;;;;;;5005974;28;20585;-65
2023/05/11 07:55:05;;;;;;;18.15;9.23;;;;;;;;;;4998936;28;20046;-66
2023/05/11 07:57:31;;;;;;;18.48;9.68;;;;;;;;;;5007590;28;20107;-65
2023/05/11 07:59:58;;;;;;;20.33;9.63;;;;;;;;;;5011037;28;20046;-65
2023/05/11 08:02:25;;;;;;;16.15;8.95;;;;;;;;;;5007912;28;20037;-64
2023/05/11 08:04:51;;;;;;;19.50;9.85;;;;;;;;;;5009099;28;20042;-65
2023/05/11 08:07:18;;;;;;;18.55;9.57;;;;;;;;;;5009734;28;20052;-65
2023/05/11 08:09:44;;;;;;;21.13;9.18;;;;;;;;;;4990634;28;20143;-65
2023/05/11 08:12:12;;;;;;;18.38;10.15;;;;;;;;;;5008067;28;20042;-66
2023/05/11 08:14:38;;;;;;;17.25;9.68;;;;;;;;;;5008168;28;21559;-65
2023/05/11 08:17:05;;;;;;;16.23;9.35;;;;;;;;;;5009069;28;20143;-64
2023/05/11 08:19:32;;;;;;;17.42;9.18;;;;;;;;;;5005551;28;20066;-66
2023/05/11 08:21:58;;;;;;;17.25;8.98;;;;;;;;;;5007713;28;20408;-65
2023/05/11 08:24:25;;;;;;;17.42;8.55;;;;;;;;;;5007501;28;20107;-65
2023/05/11 08:26:52;;;;;;;16.65;8.88;;;;;;;;;;5006001;28;20059;-65
2023/05/11 08:29:19;;;;;;;22.23;8.70;;;;;;;;;;5006464;28;20229;-65
2023/05/11 08:31:46;;;;;;;18.70;9.00;;;;;;;;;;5004923;28;21256;-65
2023/05/11 08:34:12;;;;;;;17.42;9.27;;;;;;;;;;5006903;28;20204;-66
2023/05/11 08:36:39;;;;;;;18.10;9.55;;;;;;;;;;5003717;28;20046;-67
2023/05/11 08:39:05;;;;;;;14.52;8.98;;;;;;;;;;5006211;28;20037;-66
2023/05/11 08:41:32;;;;;;;17.75;9.63;;;;;;;;;;5008521;28;20132;-66
2023/05/11 08:43:59;;;;;;;19.55;9.52;;;;;;;;;;5009910;28;20046;-66
2023/05/11 08:46:28;;;;;;;17.58;8.70;;;;;;;;;;5009071;28;20053;-61
2023/05/11 08:48:55;;;;;;;14.32;8.80;;;;;;;;;;5011190;28;20534;-61
2023/05/11 08:51:25;;;;;;;20.73;9.73;;;;;;;;;;5010261;28;20038;-62
2023/05/11 08:53:52;;;;;;;15.38;9.02;;;;;;;;;;5010970;28;20056;-60
2023/05/11 08:56:20;;;;;;;18.27;8.75;;;;;;;;;;5004056;28;20056;-59
2023/05/11 08:58:47;;;;;;;14.85;8.75;;;;;;;;;;5002912;28;20046;-59
2023/05/11 09:01:15;;;;;;;16.33;9.07;;;;;;;;;;5010484;28;20041;-62
2023/05/11 09:03:42;;;;;;;17.60;8.35;;;;;;;;;;5009831;28;20042;-58
2023/05/11 09:06:09;;;;;;;16.60;8.25;;;;;;;;;;5010965;28;20037;-60
2023/05/11 09:08:37;;;;;;;14.23;8.00;;;;;;;;;;5010396;28;20049;-58
2023/05/11 09:11:05;;;;;;;15.40;8.15;;;;;;;;;;5010270;28;20153;-58
2023/05/11 09:13:31;;;;;;;18.25;7.78;;;;;;;;;;5010698;28;20038;-60
2023/05/11 09:15:58;;;;;;;17.25;9.18;;;;;;;;;;5009905;28;20065;-61
2023/05/11 09:18:26;;;;;;;16.27;7.30;;;;;;;;;;5009296;28;20111;-60
2023/05/11 09:20:53;;;;;;;17.83;8.30;;;;;;;;;;5011245;28;20036;-58
2023/05/11 09:23:25;;;;;;;18.60;8.52;;;;;;;;;;5010527;28;20100;-59
2023/05/11 09:25:51;;;;;;;20.60;8.20;;;;;;;;;;5010343;28;20041;-60
2023/05/11 09:28:21;;;;;;;17.10;7.75;;;;;;;;;;5011067;28;20444;-58
2023/05/11 09:30:48;;;;;;;16.75;8.77;;;;;;;;;;5011552;28;20045;-61
2023/05/11 09:33:21;;;;;;;22.65;8.10;;;;;;;;;;5010545;28;20475;-59
2023/05/11 09:35:48;;;;;;;16.30;7.63;;;;;;;;;;5011361;28;20037;-57
2023/05/11 09:38:18;;;;;;;15.35;8.10;;;;;;;;;;5012979;28;20078;-58
2023/05/11 09:40:55;;;;;;;17.88;8.98;;;;;;;;;;5011815;28;20053;-59
2023/05/11 09:43:28;;;;;;;14.93;8.00;;;;;;;;;;5009995;28;20033;-61
2023/05/11 09:45:54;;;;;;;;;;;;;;;;;;5009641;28;20050;-62
2023/05/11 09:48:21;;;;;;;20.70;8.88;;;;;;;;;;5005739;28;20027;-61
2023/05/11 09:50:49;;;;;;;18.48;8.65;;;;;;;;;;5005540;28;20113;-60
2023/05/11 09:53:16;;;;;;;20.33;9.35;;;;;;;;;;5006095;28;20149;-59
2023/05/11 09:55:52;;;;;;;22.60;9.75;;;;;;;;;;5006614;28;20042;-62
2023/05/11 09:58:19;;;;;;;17.10;8.63;;;;;;;;;;5008472;28;20051;-60
2023/05/11 10:00:52;;;;;;;21.67;9.60;;;;;;;;;;5007301;28;20037;-62
2023/05/11 10:03:18;;;;;;;;;;;;;;;;;;5008833;28;20042;-60
2023/05/11 10:06:03;;;;;;;19.10;9.52;;;;;;;;;;5006690;28;20597;-60
2023/05/11 10:08:33;;;;;;;16.83;8.88;;;;;;;;;;5008059;28;20086;-60
2023/05/11 10:11:01;;;;;;;14.02;8.20;;;;;;;;;;5007024;28;20037;-61
2023/05/11 10:13:29;;;;;;;14.30;8.25;;;;;;;;;;5006609;28;20496;-62
2023/05/11 10:15:57;;;;;;;15.93;9.00;;;;;;;;;;5006446;28;20436;-59
2023/05/11 10:18:25;;;;;;;15.27;8.60;;;;;;;;;;5006801;28;20053;-59
2023/05/11 10:20:52;;;;;;;16.35;8.88;;;;;;;;;;5007801;28;20045;-61
2023/05/11 10:23:19;;;;;;;17.85;9.05;;;;;;;;;;5008925;28;20038;-61
2023/05/11 10:25:46;;;;;;;18.73;9.32;;;;;;;;;;5007555;28;20081;-62
2023/05/11 10:28:13;;;;;;;16.40;8.43;;;;;;;;;;5008292;28;20042;-62
2023/05/11 10:30:40;;;;;;;17.17;8.43;;;;;;;;;;5007498;28;20052;-60
2023/05/11 10:33:08;;;;;;;15.52;8.93;;;;;;;;;;5006613;28;20113;-61
2023/05/11 10:35:37;;;;;;;13.15;8.27;;;;;;;;;;4995622;28;20037;-62
2023/05/11 10:38:05;;;;;;;16.02;8.98;;;;;;;;;;4990008;28;20831;-60
2023/05/11 10:40:36;;;;;;;16.98;9.02;;;;;;;;;;5006881;28;20045;-60
2023/05/11 10:43:06;;;;;;;16.20;8.98;;;;;;;;;;5007258;28;20033;-62
2023/05/11 10:45:51;;;;;;;19.48;8.80;;;;;;;;;;5006047;28;20088;-61
2023/05/11 10:48:21;;;;;;;15.50;9.00;;;;;;;;;;5007108;28;20037;-63
2023/05/11 10:50:55;;;;;;;19.00;9.02;;;;;;;;;;5006370;28;20761;-61
2023/05/11 10:53:33;;;;;;;15.68;8.82;;;;;;;;;;5007011;28;20510;-64
2023/05/11 10:56:26;;;;;;;18.88;9.02;;;;;;;;;;5006302;28;20419;-62
2023/05/11 10:59:07;;;;;;;15.77;8.45;;;;;;;;;;4977813;28;20046;-64
2023/05/11 11:01:36;;;;;;;14.73;8.65;;;;;;;;;;5005252;28;20156;-60
2023/05/11 11:04:05;;;;;;;18.00;8.60;;;;;;;;;;5008091;28;20041;-60
2023/05/11 11:06:32;;;;;;;18.13;8.77;;;;;;;;;;5006605;28;20124;-60
2023/05/11 11:09:03;;;;;;;19.02;9.40;;;;;;;;;;5010037;28;20085;-60
2023/05/11 11:11:31;;;;;;;22.90;9.70;;;;;;;;;;4995082;28;20049;-59
2023/05/11 11:14:01;;;;;;;14.65;8.55;;;;;;;;;;4986648;28;20041;-62
2023/05/11 11:16:28;;;;;;;18.52;9.75;;;;;;;;;;5004484;28;20041;-59
2023/05/11 11:19:18;;;;;;;15.18;8.45;;;;;;;;;;5006997;28;20046;-62
2023/05/11 11:21:44;;;;;;;13.18;8.27;;;;;;;;;;4996212;28;20120;-62
2023/05/11 11:24:31;;;;;;;19.85;9.60;;;;;;;;;;4994547;28;20571;-61
2023/05/11 11:26:57;;;;;;;19.88;9.75;;;;;;;;;;5006437;28;20042;-60
2023/05/11 11:29:24;;;;;;;14.57;8.77;;;;;;;;;;4997288;28;20033;-65
2023/05/11 11:31:51;;;;;;;17.30;9.57;;;;;;;;;;5004623;28;20034;-61
2023/05/11 11:34:31;;;;;;;18.25;8.75;;;;;;;;;;5006031;28;20526;-62
2023/05/11 11:36:59;;;;;;;15.73;9.50;;;;;;;;;;5006084;28;20042;-62
2023/05/11 11:39:26;;;;;;;16.95;9.13;;;;;;;;;;4993628;28;20045;-62
2023/05/11 11:42:02;;;;;;;17.15;9.75;;;;;;;;;;5007589;28;20167;-62
2023/05/11 11:44:29;;;;;;;18.23;9.38;;;;;;;;;;5005221;28;20049;-60
2023/05/11 11:47:11;;;;;;;16.25;9.25;;;;;;;;;;5005729;28;20046;-64
2023/05/11 11:49:38;;;;;;;16.55;9.32;;;;;;;;;;5006962;28;20334;-59
2023/05/11 11:52:06;;;;;;;21.70;9.90;;;;;;;;;;5012857;28;21711;-59
2023/05/11 11:54:42;;;;;;;25.67;10.35;;;;;;;;;;5001061;28;20049;-62
2023/05/11 11:57:42;;;;;;;21.38;9.60;;;;;;;;;;5007472;28;20582;-65
2023/05/11 12:00:10;;;;;;;20.02;9.63;;;;;;;;;;4938322;28;20045;-64
2023/05/11 12:02:41;;;;;;;19.27;9.55;;;;;;;;;;5004444;28;20034;-63
2023/05/11 12:05:17;;;;;;;18.48;9.55;;;;;;;;;;5004651;28;20087;-62
2023/05/11 12:07:45;;;;;;;17.63;8.93;;;;;;;;;;5005415;28;20049;-62
2023/05/11 12:10:18;;;;;;;16.50;8.35;;;;;;;;;;4993530;28;20447;-57
2023/05/11 12:12:44;;;;;;;;;;;;;;;;;;5006969;28;20519;-61
2023/05/11 12:15:22;;;;;;;14.20;8.77;;;;;;;;;;5008792;28;20027;-59
2023/05/11 12:17:49;;;;;;;16.95;8.38;;;;;;;;;;5009854;28;20904;-61
2023/05/11 12:20:17;;;;;;;20.67;10.05;;;;;;;;;;5009506;28;20060;-61
2023/05/11 12:22:45;;;;;;;19.23;10.13;;;;;;;;;;5008033;28;20152;-62
2023/05/11 12:25:14;;;;;;;19.25;9.80;;;;;;;;;;5009077;28;20048;-61
2023/05/11 12:28:01;;;;;;;17.13;9.32;;;;;;;;;;5008973;28;20081;-61
2023/05/11 12:30:29;;;;;;;20.80;8.93;;;;;;;;;;4996514;28;20037;-62
2023/05/11 12:32:58;;;;;;;24.25;9.90;;;;;;;;;;5010267;28;20042;-63
2023/05/11 12:35:25;;;;;;;14.95;9.63;;;;;;;;;;5003484;28;20038;-65
2023/05/11 12:37:52;;;;;;;17.00;9.35;;;;;;;;;;5008972;28;20045;-62
2023/05/11 12:40:19;;;;;;;21.13;9.88;;;;;;;;;;5008399;28;20129;-59
2023/05/11 12:42:50;;;;;;;18.85;9.23;;;;;;;;;;5009530;28;20045;-60
2023/05/11 12:45:17;;;;;;;20.48;9.10;;;;;;;;;;5008931;28;20034;-59
2023/05/11 12:47:44;;;;;;;22.35;9.50;;;;;;;;;;4992548;28;20037;-62
2023/05/11 12:50:11;;;;;;;23.25;9.65;;;;;;;;;;5006479;28;20030;-60
2023/05/11 12:52:37;;;;;;;21.58;10.07;;;;;;;;;;5008007;28;20040;-61
2023/05/11 12:55:04;;;;;;;18.50;9.10;;;;;;;;;;5007987;28;20096;-60
2023/05/11 12:57:32;;;;;;;22.23;10.10;;;;;;;;;;5007179;28;20038;-63
2023/05/11 13:00:11;;;;;;;20.63;9.88;;;;;;;;;;5004857;28;20056;-60
2023/05/11 13:02:51;;;;;;;15.52;8.70;;;;;;;;;;5007679;28;20042;-64
2023/05/11 13:05:19;;;;;;;19.60;8.60;;;;;;;;;;5009342;28;20057;-62
2023/05/11 13:07:47;;;;;;;18.05;8.23;;;;;;;;;;5009309;28;20046;-65
2023/05/11 13:10:14;;;;;;;16.02;8.20;;;;;;;;;;5008559;28;20136;-65
2023/05/11 13:12:50;;;;;;;15.48;7.75;;;;;;;;;;5009203;28;20140;-59
2023/05/11 13:15:17;;;;;;;14.13;7.63;;;;;;;;;;5001671;28;20397;-61
2023/05/11 13:17:44;;;;;;;16.65;6.97;;;;;;;;;;5009441;28;20049;-59
2023/05/11 13:20:16;;;;;;;12.10;6.78;;;;;;;;;;5009349;28;20125;-63
2023/05/11 13:22:43;;;;;;;14.10;6.73;;;;;;;;;;5003955;28;20060;-62
2023/05/11 13:25:10;;;;;;;12.32;6.55;;;;;;;;;;5002259;28;20052;-59
2023/05/11 13:27:37;;;;;;;14.18;6.88;;;;;;;;;;5010073;28;20060;-59
2023/05/11 13:30:07;;;;;;;14.55;6.97;;;;;;;;;;5011706;28;20087;-59
2023/05/11 13:32:35;;;;;;;13.68;6.07;;;;;;;;;;5009668;28;20500;-61
2023/05/11 13:35:06;;;;;;;17.65;6.60;;;;;;;;;;5011046;28;20049;-62
2023/05/11 13:37:32;;;;;;;12.60;6.00;;;;;;;;;;5003113;28;20069;-61
2023/05/11 13:39:59;;;;;;;12.48;6.20;;;;;;;;;;5010918;28;20050;-63
2023/05/11 13:42:26;;;;;;;15.02;6.50;;;;;;;;;;5007865;28;20034;-61
2023/05/11 13:44:52;;;;;;;10.52;5.97;;;;;;;;;;5011024;28;20550;-59
2023/05/11 13:47:19;;;;;;;12.27;6.00;;;;;;;;;;5001442;28;20068;-63
2023/05/11 13:49:46;;;;;;;11.30;5.47;;;;;;;;;;5007822;28;20049;-68
2023/05/11 13:52:13;;;;;;;17.30;5.90;;;;;;;;;;4995359;28;20125;-62
2023/05/11 13:54:39;;;;;;;12.75;5.78;;;;;;;;;;5007686;28;20388;-63
2023/05/11 13:57:06;;;;;;;11.73;5.85;;;;;;;;;;5012578;28;20038;-62
2023/05/11 13:59:33;;;;;;;14.70;5.57;;;;;;;;;;5008780;28;20077;-60
2023/05/11 14:02:00;;;;;;;16.42;6.05;;;;;;;;;;5010301;28;20086;-61
2023/05/11 14:04:26;;;;;;;10.80;5.35;;;;;;;;;;5007995;28;20071;-62
2023/05/11 14:06:53;;;;;;;16.38;6.20;;;;;;;;;;5006579;28;20133;-62
2023/05/11 14:09:21;;;;;;;13.65;5.80;;;;;;;;;;5008705;28;20042;-61
2023/05/11 14:11:49;;;;;;;11.02;4.65;;;;;;;;;;5008770;28;20034;-61
2023/05/11 14:14:16;;;;;;;11.05;5.45;;;;;;;;;;5009146;28;20428;-61
2023/05/11 14:16:42;;;;;;;9.45;5.18;;;;;;;;;;5008826;28;20081;-61
2023/05/11 14:19:09;;;;;;;10.02;5.20;;;;;;;;;;4970147;28;20045;-61
2023/05/11 14:21:36;;;;;;;11.38;4.72;;;;;;;;;;4969674;28;20549;-59
2023/05/11 14:24:03;;;;;;;10.40;4.60;;;;;;;;;;4960116;28;20048;-61
2023/05/11 14:26:30;;;;;;;12.35;4.60;;;;;;;;;;4970286;28;20031;-61
2023/05/11 14:28:56;;;;;;;10.35;4.93;;;;;;;;;;4953733;28;20599;-62
2023/05/11 14:31:23;;;;;;;9.07;4.53;;;;;;;;;;4969167;28;20042;-62
2023/05/11 14:33:50;;;;;;;10.63;4.32;;;;;;;;;;4970172;28;20122;-61
2023/05/11 14:36:16;;;;;;;20.65;5.55;;;;;;;;;;4969368;28;20038;-60
2023/05/11 14:38:44;;;;;;;10.00;4.60;;;;;;;;;;4966176;28;20042;-63
2023/05/11 14:41:11;;;;;;;10.50;5.03;;;;;;;;;;4969857;28;20121;-62